createdAt,value
2019-05-02T00:00:03.121Z,10.23
2019-05-02T00:05:03.270Z,9.35
2019-05-02T00:10:02.717Z,9.55
2019-05-02T00:15:03.590Z,9.40
2019-05-02T00:20:03.050Z,9.73
2019-05-02T00:25:02.612Z,10.35
2019-05-02T00:30:03.128Z,9.75
2019-05-02T00:35:02.569Z,9.88
2019-05-02T00:40:03.090Z,10.50
2019-05-02T00:45:02.641Z,9.93
2019-05-02T00:50:06.217Z,10.75
2019-05-02T00:55:03.193Z,10.03
2019-05-02T01:00:02.641Z,9.00
2019-05-02T01:05:03.399Z,10.63
2019-05-02T01:10:02.877Z,9.53
2019-05-02T01:15:08.043Z,10.08
2019-05-02T01:20:02.948Z,9.23
2019-05-02T01:25:03.409Z,9.93
2019-05-02T01:30:06.088Z,10.25
2019-05-02T01:35:02.750Z,9.85
2019-05-02T01:40:03.186Z,9.28
2019-05-02T01:45:06.678Z,9.10
2019-05-02T01:50:03.326Z,10.20
2019-05-02T01:55:02.798Z,10.08
2019-05-02T02:00:04.257Z,10.18
2019-05-02T02:05:03.449Z,10.23
2019-05-02T02:10:02.910Z,9.75
2019-05-02T02:15:03.417Z,10.15
2019-05-02T02:20:02.945Z,9.25
2019-05-02T02:25:03.475Z,10.43
2019-05-02T02:30:02.930Z,11.08
2019-05-02T02:35:09.568Z,10.50
2019-05-02T02:40:02.752Z,12.25
2019-05-02T02:45:03.220Z,10.43
2019-05-02T02:50:05.122Z,11.20
2019-05-02T02:55:02.866Z,12.45
2019-05-02T03:00:08.653Z,10.63
2019-05-02T03:05:03.347Z,11.12
2019-05-02T03:10:06.068Z,9.53
2019-05-02T03:15:02.490Z,12.15
2019-05-02T03:20:03.954Z,11.25
2019-05-02T03:25:02.500Z,10.20
2019-05-02T03:30:03.047Z,9.93
2019-05-02T03:35:02.683Z,9.00
2019-05-02T03:40:03.199Z,11.38
2019-05-02T03:45:04.909Z,10.58
2019-05-02T03:50:02.835Z,10.38
2019-05-02T03:55:03.278Z,9.70
2019-05-02T04:00:02.693Z,12.98
2019-05-02T04:05:03.244Z,11.85
2019-05-02T04:10:02.755Z,11.63
2019-05-02T04:15:03.209Z,12.28
2019-05-02T04:20:09.304Z,13.32
2019-05-02T04:25:06.238Z,12.15
2019-05-02T04:30:09.727Z,0
2019-05-02T04:35:02.513Z,13.28
2019-05-02T04:40:04.003Z,12.28
2019-05-02T04:45:20.525Z,15.00
2019-05-02T04:50:07.707Z,11.65
2019-05-02T04:55:18.065Z,13.70
2019-05-02T05:00:06.349Z,14.73
2019-05-02T05:05:02.723Z,13.22
2019-05-02T05:10:03.597Z,13.58
2019-05-02T05:15:03.090Z,13.83
2019-05-02T05:20:10.945Z,12.58
2019-05-02T05:25:03.060Z,15.25
2019-05-02T05:30:09.409Z,16.00
2019-05-02T05:35:07.836Z,16.37
2019-05-02T05:40:03.363Z,16.25
2019-05-02T05:45:03.702Z,18.57
2019-05-02T05:50:03.262Z,16.23
2019-05-02T05:55:04.858Z,15.60
2019-05-02T06:00:03.685Z,18.85
2019-05-02T06:05:03.901Z,17.52
2019-05-02T06:10:07.973Z,18.27
2019-05-02T06:15:03.799Z,15.00
2019-05-02T06:20:03.334Z,18.25
2019-05-02T06:25:02.897Z,18.73
2019-05-02T06:30:03.450Z,18.25
2019-05-02T06:35:02.932Z,18.17
2019-05-02T06:40:07.906Z,17.55
2019-05-02T06:45:02.790Z,19.77
2019-05-02T06:50:03.267Z,20.17
2019-05-02T06:55:02.680Z,18.27
2019-05-02T07:00:03.205Z,16.85
2019-05-02T07:05:02.707Z,23.32
2019-05-02T07:10:03.150Z,18.35
2019-05-02T07:15:03.822Z,23.45
2019-05-02T07:20:04.007Z,22.65
2019-05-02T07:25:06.978Z,22.60
2019-05-02T07:30:03.189Z,22.75
2019-05-02T07:35:02.705Z,26.12
2019-05-02T07:40:03.160Z,19.35
2019-05-02T07:45:04.319Z,22.27
2019-05-02T07:50:05.368Z,25.68
2019-05-02T07:55:06.198Z,17.32
2019-05-02T08:00:02.850Z,25.12
2019-05-02T08:05:03.311Z,22.52
2019-05-02T08:10:02.746Z,28.67
2019-05-02T08:15:07.403Z,25.80
2019-05-02T08:20:05.071Z,27.25
2019-05-02T08:25:02.666Z,25.72
2019-05-02T08:30:04.318Z,26.95
2019-05-02T08:35:03.114Z,27.98
2019-05-02T08:40:05.409Z,29.02
2019-05-02T08:45:03.226Z,28.85
2019-05-02T08:50:02.807Z,32.85
2019-05-02T08:55:04.296Z,28.27
2019-05-02T09:00:02.568Z,25.45
2019-05-02T09:05:04.504Z,22.75
2019-05-02T09:10:05.651Z,32.20
2019-05-02T09:15:03.175Z,28.20
2019-05-02T09:20:05.460Z,28.27
2019-05-02T09:25:03.038Z,28.50
2019-05-02T09:30:02.867Z,29.20
2019-05-02T09:35:06.210Z,30.82
2019-05-02T09:40:06.824Z,23.55
2019-05-02T09:45:03.111Z,22.17
2019-05-02T09:50:02.841Z,23.90
2019-05-02T09:55:02.899Z,0
2019-05-02T10:00:02.554Z,0
2019-05-02T10:05:02.993Z,23.30
2019-05-02T10:10:06.474Z,25.65
2019-05-02T10:15:03.163Z,23.40
2019-05-02T10:20:02.735Z,26.82
2019-05-02T10:25:03.236Z,26.10
2019-05-02T10:30:11.887Z,23.87
2019-05-02T10:35:02.817Z,22.30
2019-05-02T10:40:07.874Z,19.35
2019-05-02T10:45:02.912Z,20.27
2019-05-02T10:50:03.343Z,18.67
2019-05-02T10:55:02.814Z,21.37
2019-05-02T11:00:03.355Z,20.92
2019-05-02T11:05:02.909Z,17.07
2019-05-02T11:10:06.824Z,20.72
2019-05-02T11:15:02.410Z,20.15
2019-05-02T11:20:02.828Z,18.07
2019-05-02T11:25:03.365Z,19.50
2019-05-02T11:30:02.905Z,17.32
2019-05-02T11:35:03.426Z,21.48
2019-05-02T11:40:06.025Z,20.72
2019-05-02T11:45:02.831Z,19.57
2019-05-02T11:50:03.389Z,19.02
2019-05-02T11:55:02.808Z,23.15
2019-05-02T12:00:05.002Z,20.75
2019-05-02T12:05:03.185Z,19.32
2019-05-02T12:10:04.585Z,17.57
2019-05-02T12:15:03.144Z,20.65
2019-05-02T12:20:02.673Z,17.65
2019-05-02T12:25:03.228Z,21.60
2019-05-02T12:30:03.257Z,19.45
2019-05-02T12:35:02.968Z,21.68
2019-05-02T12:40:02.791Z,22.15
2019-05-02T12:45:03.343Z,21.75
2019-05-02T12:50:03.262Z,24.00
2019-05-02T12:55:02.826Z,27.20
2019-05-02T13:00:03.239Z,26.52
2019-05-02T13:05:02.674Z,27.02
2019-05-02T13:10:03.097Z,22.77
2019-05-02T13:15:02.537Z,22.05
2019-05-02T13:20:03.940Z,25.10
2019-05-02T13:25:02.513Z,27.40
2019-05-02T13:30:03.475Z,28.77
2019-05-02T13:35:02.980Z,25.82
2019-05-02T13:40:02.743Z,25.17
2019-05-02T13:45:03.233Z,21.37
2019-05-02T13:50:03.875Z,23.98
2019-05-02T13:55:02.588Z,26.40
2019-05-02T14:00:03.030Z,26.07
2019-05-02T14:05:02.593Z,32.17
2019-05-02T14:10:03.033Z,28.62
2019-05-02T14:15:03.133Z,25.62
2019-05-02T14:20:10.788Z,27.82
2019-05-02T14:25:02.984Z,27.40
2019-05-02T14:30:02.619Z,26.82
2019-05-02T14:35:03.234Z,25.60
2019-05-02T14:40:02.698Z,26.10
2019-05-02T14:45:10.694Z,27.05
2019-05-02T14:50:05.090Z,21.33
2019-05-02T14:55:03.039Z,19.30
2019-05-02T15:00:03.273Z,17.80
2019-05-02T15:05:02.954Z,20.48
2019-05-02T15:10:06.419Z,18.32
2019-05-02T15:15:03.159Z,19.62
2019-05-02T15:20:02.906Z,17.17
2019-05-02T15:25:02.802Z,0
2019-05-02T15:30:06.805Z,16.17
2019-05-02T15:35:02.733Z,14.23
2019-05-02T15:40:32.590Z,16.50
2019-05-02T15:45:05.592Z,15.35
2019-05-02T15:50:03.364Z,15.23
2019-05-02T15:55:04.158Z,12.90
2019-05-02T16:00:01.888Z,0
2019-05-02T16:05:05.305Z,0
2019-05-02T16:10:03.976Z,10.20
2019-05-02T16:15:07.147Z,11.03
2019-05-02T16:20:07.596Z,11.90
2019-05-02T16:25:02.803Z,10.28
2019-05-02T16:30:07.414Z,10.75
2019-05-02T16:35:12.196Z,13.08
2019-05-02T16:40:03.279Z,12.03
2019-05-02T16:45:02.821Z,12.73
2019-05-02T16:50:03.349Z,12.63
2019-05-02T16:55:03.081Z,11.03
2019-05-02T17:00:06.255Z,10.70
2019-05-02T17:05:08.293Z,12.93
2019-05-02T17:10:03.077Z,10.70
2019-05-02T17:15:02.586Z,11.53
2019-05-02T17:20:07.236Z,10.88
2019-05-02T17:25:05.890Z,10.58
2019-05-02T17:30:03.745Z,10.95
2019-05-02T17:35:09.890Z,11.05
2019-05-02T17:40:02.857Z,9.90
2019-05-02T17:45:03.945Z,10.20
2019-05-02T17:50:07.276Z,11.00
2019-05-02T17:55:03.150Z,10.35
2019-05-02T18:00:02.930Z,10.35
2019-05-02T18:05:02.853Z,10.98
2019-05-02T18:10:07.817Z,10.05
2019-05-02T18:15:03.326Z,11.12
2019-05-02T18:20:05.885Z,9.50
2019-05-02T18:25:02.660Z,9.95
2019-05-02T18:30:03.095Z,10.65
2019-05-02T18:35:06.055Z,9.15
2019-05-02T18:40:03.102Z,8.10
2019-05-02T18:45:02.690Z,4.15
2019-05-02T18:50:06.065Z,3.60
2019-05-02T18:55:02.860Z,2.92
2019-05-02T19:00:03.295Z,2.50
2019-05-02T19:05:02.708Z,2.60
2019-05-02T19:10:05.715Z,2.77
2019-05-02T19:15:07.073Z,0
2019-05-02T19:20:06.259Z,2.20
2019-05-02T19:25:03.852Z,2.30
2019-05-02T19:30:03.401Z,2.40
2019-05-02T19:35:06.815Z,2.10
2019-05-02T19:40:02.540Z,2.17
2019-05-02T19:45:11.241Z,2.37
2019-05-02T19:50:03.098Z,2.80
2019-05-02T19:55:02.654Z,2.30
2019-05-02T20:00:06.535Z,2.52
2019-05-02T20:05:03.123Z,2.37
2019-05-02T20:10:02.539Z,2.40
2019-05-02T20:15:02.976Z,2.55
2019-05-02T20:20:05.520Z,0
2019-05-02T20:25:03.843Z,2.25
2019-05-02T20:30:03.391Z,2.47
2019-05-02T20:35:02.911Z,3.00
2019-05-02T20:40:02.889Z,0
2019-05-02T20:45:02.614Z,0
2019-05-02T20:50:05.771Z,2.20
2019-05-02T20:55:03.385Z,2.83
2019-05-02T21:00:02.901Z,2.30
2019-05-02T21:10:02.404Z,2.22
2019-05-02T21:15:02.776Z,2.77
2019-05-02T21:20:03.195Z,4.03
2019-05-02T21:25:02.624Z,4.45
2019-05-02T21:30:03.010Z,3.80
2019-05-02T21:35:02.835Z,2.87
2019-05-02T21:40:03.332Z,2.55
2019-05-02T21:45:02.734Z,2.83
2019-05-02T21:50:03.182Z,2.75
2019-05-02T21:55:02.653Z,2.67
2019-05-02T22:00:03.041Z,3.50
2019-05-02T22:05:02.511Z,2.60
2019-05-02T22:10:03.099Z,3.00
2019-05-02T22:15:02.544Z,2.85
2019-05-02T22:20:02.926Z,3.27
2019-05-02T22:25:03.313Z,3.20
2019-05-02T22:30:02.730Z,3.02
2019-05-02T22:35:03.189Z,3.62
2019-05-02T22:40:03.959Z,3.40
2019-05-02T22:45:04.555Z,3.40
2019-05-02T22:50:03.215Z,3.05
2019-05-02T22:55:03.035Z,2.85
2019-05-02T23:00:07.016Z,3.52
2019-05-02T23:05:02.608Z,3.35
2019-05-02T23:10:03.048Z,3.20
2019-05-02T23:15:02.672Z,3.52
2019-05-02T23:20:03.134Z,3.30
2019-05-02T23:25:02.985Z,3.47
2019-05-02T23:30:02.865Z,3.33
2019-05-02T23:35:02.513Z,3.52
2019-05-02T23:40:03.068Z,4.15
2019-05-02T23:45:02.875Z,3.55
2019-05-02T23:50:03.432Z,3.67
2019-05-02T23:55:03.127Z,3.75
